SAVV/VDM METAR and TAF weather

Enter ICAO airport designator
Station Type Date Time Source
SAVV METAR 2019/06/18 15:30 UTC NOAA

SAVV 181530Z 05003KT 1800 DZ OVC006 12/12 Q1001


Station Type Date Time Source
SAVV Decoded METAR 2019/06/18 15:30 UTC NOAA

Viedma Aerodrome, Argentina (SAVV) 40-51S 063-01W 7M
Jun 18, 2019 - 11:30 AM EDT / 2019.06.18 1530 UTC
Wind: from the NE (050 degrees) at 3 MPH (3 KT):0
Visibility: 1 mile(s):0
Sky conditions: overcast
Weather: drizzle
Temperature: 53 F (12 C)
Dew Point: 53 F (12 C)
Relative Humidity: 100%
Pressure (altimeter): 29.56 in. Hg (1001 hPa)
ob: SAVV 181530Z 05003KT 1800 DZ OVC006 12/12 Q1001
cycle: 15

Station Type Date Time Source
SAVV TAF 2019/04/29 06:24 UTC NOAA

TAF TAF SAVV 290500Z 2906/3006 29015KT CAVOK TX18/2919Z TN07/3006Z
BECMG 2908/3010 25010KT
TEMPO 2914/2921 25020G30KT

Example: see airport list